createdAt,value
2017-09-26T00:01:18.741Z,99406
2017-09-26T00:03:47.630Z,99401
2017-09-26T00:06:16.514Z,99410
2017-09-26T00:08:45.415Z,99406
2017-09-26T00:11:14.308Z,99408
2017-09-26T00:13:43.204Z,99408
2017-09-26T00:16:12.086Z,99398
2017-09-26T00:18:41.008Z,99398
2017-09-26T00:21:09.127Z,99395
2017-09-26T00:23:37.256Z,99408
2017-09-26T00:26:05.399Z,99398
2017-09-26T00:28:34.291Z,99401
2017-09-26T00:31:03.196Z,99402
2017-09-26T00:33:32.087Z,99391
2017-09-26T00:36:04.344Z,99394
2017-09-26T00:38:33.235Z,99402
2017-09-26T00:41:02.139Z,99400
2017-09-26T00:43:31.024Z,99393
2017-09-26T00:45:59.923Z,99392
2017-09-26T00:48:28.060Z,99393
2017-09-26T00:50:56.194Z,99390
2017-09-26T00:53:24.310Z,99393
2017-09-26T00:55:52.441Z,99392
2017-09-26T00:58:20.585Z,99390
2017-09-26T01:00:49.479Z,99389
2017-09-26T01:03:18.363Z,99392
2017-09-26T01:08:52.820Z,99391
2017-09-26T01:11:20.954Z,99391
2017-09-26T01:13:49.070Z,99394
2017-09-26T01:16:17.207Z,99394
2017-09-26T01:18:45.323Z,99397
2017-09-26T01:21:13.452Z,99394
2017-09-26T01:23:41.583Z,99397
2017-09-26T01:26:09.718Z,99400
2017-09-26T01:28:38.619Z,99396
2017-09-26T01:31:07.516Z,99393
2017-09-26T01:33:36.399Z,99393
2017-09-26T01:36:05.300Z,99390
2017-09-26T01:38:33.421Z,99398
2017-09-26T01:41:19.467Z,99397
2017-09-26T01:43:48.357Z,99388
2017-09-26T01:46:17.255Z,99389
2017-09-26T01:48:45.390Z,99394
2017-09-26T01:51:13.523Z,99396
2017-09-26T01:53:41.647Z,99387
2017-09-26T01:56:15.265Z,99397
2017-09-26T01:58:54.057Z,99409
2017-09-26T02:01:22.199Z,99396
2017-09-26T02:03:50.324Z,99402
2017-09-26T02:06:19.227Z,99395
2017-09-26T02:08:48.123Z,99397
2017-09-26T02:11:17.015Z,99403
2017-09-26T02:13:45.907Z,99393
2017-09-26T02:16:14.804Z,99401
2017-09-26T02:18:43.696Z,99400
2017-09-26T02:21:11.827Z,99396
2017-09-26T02:23:39.950Z,99396
2017-09-26T02:26:08.087Z,99384
2017-09-26T02:28:36.215Z,99399
2017-09-26T02:31:04.358Z,99402
2017-09-26T02:33:33.247Z,99388
2017-09-26T02:36:02.151Z,99399
2017-09-26T02:38:31.036Z,99391
2017-09-26T02:40:59.935Z,99401
2017-09-26T02:43:28.820Z,99398
2017-09-26T02:45:57.715Z,99403
2017-09-26T02:48:26.607Z,99401
2017-09-26T02:50:55.524Z,99402
2017-09-26T02:53:23.643Z,99397
2017-09-26T02:55:51.778Z,99394
2017-09-26T02:58:19.906Z,99405
2017-09-26T03:00:48.808Z,99401
2017-09-26T03:03:17.691Z,99401
2017-09-26T03:05:46.587Z,99406
2017-09-26T03:08:15.475Z,99397
2017-09-26T03:10:44.380Z,99401
2017-09-26T03:13:13.263Z,99392
2017-09-26T03:15:42.226Z,99400
2017-09-26T03:18:10.350Z,99404
2017-09-26T03:20:38.483Z,99402
2017-09-26T03:23:06.609Z,99403
2017-09-26T03:25:34.743Z,99410
2017-09-26T03:28:03.638Z,99400
2017-09-26T03:30:32.542Z,99418
2017-09-26T03:33:00.676Z,99409
2017-09-26T03:35:28.823Z,99411
2017-09-26T03:37:56.951Z,99415
2017-09-26T03:40:25.855Z,99417
2017-09-26T03:42:54.759Z,99427
2017-09-26T03:45:22.886Z,99427
2017-09-26T03:47:51.023Z,99426
2017-09-26T03:50:19.166Z,99438
2017-09-26T03:52:48.058Z,99435
2017-09-26T03:55:16.951Z,99430
2017-09-26T03:57:45.868Z,99428
2017-09-26T04:00:13.987Z,99422
2017-09-26T04:02:42.123Z,99434
2017-09-26T04:05:10.256Z,99431
2017-09-26T04:07:39.156Z,99427
2017-09-26T04:10:08.047Z,99432
2017-09-26T04:12:36.961Z,99433
2017-09-26T04:15:05.086Z,99434
2017-09-26T04:17:33.225Z,99438
2017-09-26T04:20:02.126Z,99440
2017-09-26T04:22:30.267Z,99430
2017-09-26T04:24:58.401Z,99426
2017-09-26T04:27:26.543Z,99432
2017-09-26T04:29:54.668Z,99433
2017-09-26T04:32:23.575Z,99446
2017-09-26T04:34:51.700Z,99439
2017-09-26T04:37:19.845Z,99436
2017-09-26T04:39:48.737Z,99435
2017-09-26T04:42:17.658Z,99440
2017-09-26T04:44:45.794Z,99440
2017-09-26T04:47:13.933Z,99442
2017-09-26T04:49:42.842Z,99446
2017-09-26T04:52:10.979Z,99442
2017-09-26T04:54:39.124Z,99449
2017-09-26T04:57:08.035Z,99448
2017-09-26T04:59:36.172Z,99452
2017-09-26T05:02:05.095Z,99451
2017-09-26T05:04:33.175Z,99451
2017-09-26T05:07:01.262Z,99457
2017-09-26T05:09:29.331Z,99464
2017-09-26T05:11:57.420Z,99462
2017-09-26T05:14:26.258Z,99465
2017-09-26T05:16:54.349Z,99465
2017-09-26T05:19:22.444Z,99468
2017-09-26T05:21:50.519Z,99474
2017-09-26T05:24:18.587Z,99487
2017-09-26T05:26:46.772Z,99485
2017-09-26T05:29:15.615Z,99495
2017-09-26T05:31:43.704Z,99489
2017-09-26T05:34:11.779Z,99494
2017-09-26T05:36:39.861Z,99499
2017-09-26T05:39:07.952Z,99496
2017-09-26T05:41:36.809Z,99497
2017-09-26T05:44:05.095Z,99494
2017-09-26T05:46:33.171Z,99502
2017-09-26T05:49:01.244Z,99503
2017-09-26T05:51:29.332Z,99506
2017-09-26T05:53:57.403Z,99509
2017-09-26T05:56:25.489Z,99517
2017-09-26T05:58:54.343Z,99505
2017-09-26T06:01:22.427Z,99513
2017-09-26T06:03:50.498Z,99511
2017-09-26T06:06:18.595Z,99510
2017-09-26T06:08:47.427Z,99516
2017-09-26T06:11:15.643Z,99514
2017-09-26T06:13:43.723Z,99515
2017-09-26T06:16:11.800Z,99511
2017-09-26T06:18:39.880Z,99513
2017-09-26T06:21:08.707Z,99518
2017-09-26T06:23:37.551Z,99505
2017-09-26T06:26:05.618Z,99519
2017-09-26T06:28:33.704Z,99521
2017-09-26T06:31:02.560Z,99524
2017-09-26T06:33:30.662Z,99524
2017-09-26T06:35:59.511Z,99523
2017-09-26T06:38:27.632Z,99527
2017-09-26T06:40:56.484Z,99526
2017-09-26T06:43:24.577Z,99527
2017-09-26T06:45:52.655Z,99521
2017-09-26T06:48:20.735Z,99525
2017-09-26T06:50:49.584Z,99528
2017-09-26T06:53:17.664Z,99526
2017-09-26T06:55:45.743Z,99535
2017-09-26T06:58:13.828Z,99529
2017-09-26T07:00:41.898Z,99534
2017-09-26T07:03:09.979Z,99541
2017-09-26T07:05:38.060Z,99529
2017-09-26T07:08:06.921Z,99534
2017-09-26T07:10:35.015Z,99539
2017-09-26T07:13:03.100Z,99538
2017-09-26T07:15:31.196Z,99537
2017-09-26T07:17:59.284Z,99536
2017-09-26T07:20:27.359Z,99534
2017-09-26T07:22:55.450Z,99533
2017-09-26T07:25:23.536Z,99537
2017-09-26T07:27:51.628Z,99537
2017-09-26T07:30:19.709Z,99540
2017-09-26T07:32:48.591Z,99536
2017-09-26T07:35:16.656Z,99542
2017-09-26T07:37:44.752Z,99548
2017-09-26T07:40:13.610Z,99549
2017-09-26T07:42:41.679Z,99544
2017-09-26T07:45:09.772Z,99547
2017-09-26T07:47:37.847Z,99547
2017-09-26T07:50:05.932Z,99535
2017-09-26T07:52:34.785Z,99540
2017-09-26T07:55:02.870Z,99537
2017-09-26T07:57:30.944Z,99536
2017-09-26T07:59:59.032Z,99540
2017-09-26T08:02:27.368Z,99533
2017-09-26T08:04:55.685Z,99538
2017-09-26T08:07:24.049Z,99542
2017-09-26T08:09:52.383Z,99539
2017-09-26T08:12:20.463Z,99535
2017-09-26T08:14:48.767Z,99542
2017-09-26T08:17:16.844Z,99545
2017-09-26T08:19:44.927Z,99541
2017-09-26T08:22:12.999Z,99540
2017-09-26T08:24:41.547Z,99540
2017-09-26T08:27:09.623Z,99533
2017-09-26T08:29:38.475Z,99534
2017-09-26T08:32:07.319Z,99531
2017-09-26T08:34:35.412Z,99535
2017-09-26T08:37:03.496Z,99532
2017-09-26T08:39:31.576Z,99544
2017-09-26T08:42:00.428Z,99540
2017-09-26T08:44:28.516Z,99536
2017-09-26T08:46:56.608Z,99540
2017-09-26T08:49:24.679Z,99538
2017-09-26T08:51:52.803Z,99539
2017-09-26T08:54:20.886Z,99528
2017-09-26T08:56:48.967Z,99540
2017-09-26T08:59:17.045Z,99525
2017-09-26T09:01:45.147Z,99531
2017-09-26T09:04:13.995Z,99529
2017-09-26T09:06:42.077Z,99529
2017-09-26T09:09:10.159Z,99524
2017-09-26T09:11:38.239Z,99524
2017-09-26T09:14:06.321Z,99524
2017-09-26T09:16:35.171Z,99512
2017-09-26T09:19:03.261Z,99506
2017-09-26T09:21:31.343Z,99511
2017-09-26T09:23:59.423Z,99515
2017-09-26T09:26:27.492Z,99519
2017-09-26T09:28:55.575Z,99501
2017-09-26T09:31:23.652Z,99507
2017-09-26T09:33:51.748Z,99521
2017-09-26T09:36:20.596Z,99510
2017-09-26T09:38:48.679Z,99509
2017-09-26T09:41:16.743Z,99502
2017-09-26T09:43:44.825Z,99505
2017-09-26T09:46:12.899Z,99502
2017-09-26T09:48:40.989Z,99501
2017-09-26T09:51:09.839Z,99497
2017-09-26T09:53:37.939Z,99500
2017-09-26T09:56:06.803Z,99505
2017-09-26T09:58:34.891Z,99504
2017-09-26T10:01:02.972Z,99498
2017-09-26T10:03:31.065Z,99496
2017-09-26T10:05:59.908Z,99493
2017-09-26T10:08:28.004Z,99489
2017-09-26T10:10:56.087Z,99485
2017-09-26T10:13:24.171Z,99485
2017-09-26T10:15:53.019Z,99487
2017-09-26T10:18:21.107Z,99490
2017-09-26T10:20:49.174Z,99482
2017-09-26T10:23:17.264Z,99480
2017-09-26T10:25:45.342Z,99481
2017-09-26T10:28:14.188Z,99468
2017-09-26T10:30:42.276Z,99474
2017-09-26T10:33:10.352Z,99472
2017-09-26T10:35:38.432Z,99471
2017-09-26T10:38:06.519Z,99471
2017-09-26T10:40:34.599Z,99468
2017-09-26T10:43:03.457Z,99468
2017-09-26T10:45:31.565Z,99468
2017-09-26T10:48:00.426Z,99479
2017-09-26T10:50:28.559Z,99478
2017-09-26T10:52:56.640Z,99484
2017-09-26T10:55:24.720Z,99470
2017-09-26T10:57:52.816Z,99476
2017-09-26T11:00:20.899Z,99475
2017-09-26T11:02:48.980Z,99478
2017-09-26T11:05:17.065Z,99481
2017-09-26T11:07:45.912Z,99483
2017-09-26T11:10:14.004Z,99477
2017-09-26T11:12:42.082Z,99482
2017-09-26T11:15:10.168Z,99468
2017-09-26T11:17:39.016Z,99476
2017-09-26T11:20:07.108Z,99472
2017-09-26T11:22:35.196Z,99469
2017-09-26T11:25:04.285Z,99468
2017-09-26T11:27:32.364Z,99475
2017-09-26T11:30:00.439Z,99468
2017-09-26T11:32:28.513Z,99466
2017-09-26T11:34:56.593Z,99478
2017-09-26T11:37:25.424Z,99464
2017-09-26T11:39:53.519Z,99470
2017-09-26T11:42:21.592Z,99460
2017-09-26T11:44:49.680Z,99464
2017-09-26T11:47:17.764Z,99464
2017-09-26T11:49:45.844Z,99465
2017-09-26T11:52:13.936Z,99468
2017-09-26T11:54:42.802Z,99459
2017-09-26T11:57:10.877Z,99463
2017-09-26T11:59:38.961Z,99458
2017-09-26T12:02:07.807Z,99458
2017-09-26T12:04:35.905Z,99456
2017-09-26T12:07:04.147Z,99457
2017-09-26T12:09:32.233Z,99452
2017-09-26T12:12:00.304Z,99449
2017-09-26T12:14:28.375Z,99435
2017-09-26T12:16:56.449Z,99440
2017-09-26T12:19:24.537Z,99437
2017-09-26T12:21:52.607Z,99442
2017-09-26T12:24:20.700Z,99436
2017-09-26T12:26:48.784Z,99437
2017-09-26T12:29:17.648Z,99435
2017-09-26T12:31:45.733Z,99431
2017-09-26T12:34:14.587Z,99438
2017-09-26T12:36:42.668Z,99430
2017-09-26T12:39:10.739Z,99431
2017-09-26T12:41:38.828Z,99427
2017-09-26T12:44:06.901Z,99432
2017-09-26T12:46:34.979Z,99424
2017-09-26T12:49:03.052Z,99430
2017-09-26T12:51:31.137Z,99429
2017-09-26T12:53:59.212Z,99422
2017-09-26T12:56:28.070Z,99417
2017-09-26T12:58:56.135Z,99420
2017-09-26T13:01:24.216Z,99419
2017-09-26T13:03:52.295Z,99418
2017-09-26T13:06:20.384Z,99418
2017-09-26T13:08:48.443Z,99417
2017-09-26T13:11:16.527Z,99414
2017-09-26T13:13:44.596Z,99415
2017-09-26T13:16:12.677Z,99410
2017-09-26T13:18:40.763Z,99423
2017-09-26T13:21:09.612Z,99419
2017-09-26T13:23:37.685Z,99416
2017-09-26T13:26:05.780Z,99414
2017-09-26T13:28:33.858Z,99415
2017-09-26T13:31:01.933Z,99424
2017-09-26T13:33:30.020Z,99429
2017-09-26T13:35:58.872Z,99424
2017-09-26T13:38:26.960Z,99427
2017-09-26T13:40:55.048Z,99424
2017-09-26T13:43:23.901Z,99426
2017-09-26T13:45:51.987Z,99426
2017-09-26T13:48:20.060Z,99432
2017-09-26T13:50:48.149Z,99424
2017-09-26T13:53:16.217Z,99421
2017-09-26T13:55:44.293Z,99417
2017-09-26T13:58:12.373Z,99414
2017-09-26T14:00:41.224Z,99406
2017-09-26T14:03:09.295Z,99416
2017-09-26T14:05:37.369Z,99419
2017-09-26T14:08:05.495Z,99427
2017-09-26T14:10:34.347Z,99425
2017-09-26T14:13:02.432Z,99427
2017-09-26T14:15:30.515Z,99438
2017-09-26T14:17:59.367Z,99415
2017-09-26T14:20:27.455Z,99420
2017-09-26T14:22:55.540Z,99424
2017-09-26T14:25:23.624Z,99429
2017-09-26T14:27:52.480Z,99422
2017-09-26T14:30:20.580Z,99430
2017-09-26T14:32:48.646Z,99424
2017-09-26T14:35:16.729Z,99424
2017-09-26T14:37:45.577Z,99423
2017-09-26T14:40:13.739Z,99425
2017-09-26T14:42:41.840Z,99425
2017-09-26T14:45:09.920Z,99411
2017-09-26T14:47:38.035Z,99417
2017-09-26T14:50:06.128Z,99425
2017-09-26T14:52:34.231Z,99417
2017-09-26T14:55:02.327Z,99423
2017-09-26T14:57:30.426Z,99427
2017-09-26T14:59:59.251Z,99424
2017-09-26T15:02:27.359Z,99422
2017-09-26T15:04:55.435Z,99412
2017-09-26T15:07:23.532Z,99428
2017-09-26T15:09:52.417Z,99422
2017-09-26T15:12:21.308Z,99426
2017-09-26T15:14:50.156Z,99419
2017-09-26T15:17:18.308Z,99432
2017-09-26T15:19:47.158Z,99428
2017-09-26T15:22:16.070Z,99437
2017-09-26T15:24:44.919Z,99430
2017-09-26T15:27:13.007Z,99432
2017-09-26T15:29:41.091Z,99436
2017-09-26T15:32:09.962Z,99443
2017-09-26T15:34:38.036Z,99435
2017-09-26T15:37:06.125Z,99436
2017-09-26T15:39:35.027Z,99443
2017-09-26T15:42:03.866Z,99438
2017-09-26T15:44:31.952Z,99440
2017-09-26T15:47:00.050Z,99432
2017-09-26T15:49:28.899Z,99440
2017-09-26T15:51:56.991Z,99436
2017-09-26T15:54:25.072Z,99441
2017-09-26T15:56:53.162Z,99435
2017-09-26T15:59:22.039Z,99441
2017-09-26T16:01:50.125Z,99452
2017-09-26T16:04:18.983Z,99449
2017-09-26T16:06:47.060Z,99447
2017-09-26T16:09:15.144Z,99447
2017-09-26T16:11:43.223Z,99452
2017-09-26T16:14:11.298Z,99449
2017-09-26T16:16:39.382Z,99457
2017-09-26T16:19:08.231Z,99457
2017-09-26T16:21:36.320Z,99462
2017-09-26T16:24:04.401Z,99460
2017-09-26T16:26:32.484Z,99463
2017-09-26T16:29:01.330Z,99469
2017-09-26T16:31:29.410Z,99471
2017-09-26T16:33:57.494Z,99473
2017-09-26T16:36:25.579Z,99478
2017-09-26T16:38:53.651Z,99476
2017-09-26T16:41:21.737Z,99475
2017-09-26T16:43:50.571Z,99473
2017-09-26T16:46:18.711Z,99480
2017-09-26T16:48:47.561Z,99477
2017-09-26T16:51:15.645Z,99480
2017-09-26T16:53:43.715Z,99477
2017-09-26T16:56:11.804Z,99478
2017-09-26T16:58:39.878Z,99481
2017-09-26T17:01:08.736Z,99483
2017-09-26T17:03:36.803Z,99476
2017-09-26T17:06:04.902Z,99488
2017-09-26T17:08:32.979Z,99495
2017-09-26T17:11:01.078Z,99491
2017-09-26T17:13:29.915Z,99486
2017-09-26T17:15:58.384Z,99496
2017-09-26T17:18:26.472Z,99493
2017-09-26T17:20:54.559Z,99500
2017-09-26T17:23:22.652Z,99505
2017-09-26T17:25:51.494Z,99510
2017-09-26T17:28:19.587Z,99508
2017-09-26T17:30:47.667Z,99511
2017-09-26T17:33:15.756Z,99516
2017-09-26T17:35:43.822Z,99511
2017-09-26T17:38:11.903Z,99514
2017-09-26T17:40:40.747Z,99510
2017-09-26T17:43:08.832Z,99510
2017-09-26T17:45:36.903Z,99522
2017-09-26T17:48:04.990Z,99528
2017-09-26T17:50:33.079Z,99525
2017-09-26T17:53:01.159Z,99529
2017-09-26T17:55:30.008Z,99535
2017-09-26T17:57:58.088Z,99542
2017-09-26T18:00:26.160Z,99541
2017-09-26T18:02:54.256Z,99540
2017-09-26T18:05:22.327Z,99545
2017-09-26T18:07:50.407Z,99541
2017-09-26T18:10:18.484Z,99542
2017-09-26T18:12:46.567Z,99549
2017-09-26T18:15:15.412Z,99554
2017-09-26T18:17:43.499Z,99551
2017-09-26T18:20:11.619Z,99553
2017-09-26T18:22:40.476Z,99546
2017-09-26T18:25:08.552Z,99554
2017-09-26T18:27:36.683Z,99551
2017-09-26T18:30:04.756Z,99552
2017-09-26T18:32:32.887Z,99567
2017-09-26T18:35:01.799Z,99569
2017-09-26T18:37:29.926Z,99569
2017-09-26T18:39:58.046Z,99561
2017-09-26T18:42:26.175Z,99560
2017-09-26T18:44:54.296Z,99561
2017-09-26T18:47:22.443Z,99566
2017-09-26T18:49:51.340Z,99561
2017-09-26T18:52:20.187Z,99568
2017-09-26T18:55:01.312Z,99561
2017-09-26T18:57:30.202Z,99575
2017-09-26T18:59:59.092Z,99571
2017-09-26T19:02:28.004Z,99577
2017-09-26T19:04:56.139Z,99574
2017-09-26T19:07:24.285Z,99578
2017-09-26T19:09:53.174Z,99567
2017-09-26T19:12:21.308Z,99567
2017-09-26T19:14:50.225Z,99573
2017-09-26T19:17:18.375Z,99578
2017-09-26T19:19:47.257Z,99568
2017-09-26T19:22:16.156Z,99574
2017-09-26T19:24:44.812Z,99574
2017-09-26T19:27:13.070Z,99581
2017-09-26T19:29:41.213Z,99580
2017-09-26T19:32:09.334Z,99583
2017-09-26T19:34:37.509Z,99585
2017-09-26T19:37:05.709Z,99586
2017-09-26T19:39:34.612Z,99591
2017-09-26T19:42:02.748Z,99578
2017-09-26T19:44:30.877Z,99578
2017-09-26T19:46:59.030Z,99582
2017-09-26T19:49:27.915Z,99590
2017-09-26T19:51:56.807Z,99592
2017-09-26T19:54:25.699Z,99594
2017-09-26T19:56:54.543Z,99602
2017-09-26T19:59:22.681Z,99589
2017-09-26T20:01:50.815Z,99599
2017-09-26T20:04:18.944Z,99603
2017-09-26T20:06:47.107Z,99598
2017-09-26T20:09:15.192Z,99595
2017-09-26T20:11:43.316Z,99602
2017-09-26T20:14:11.479Z,99607
2017-09-26T20:16:39.610Z,99608
2017-09-26T20:19:07.758Z,99608
2017-09-26T20:21:36.647Z,99608
2017-09-26T20:24:05.673Z,99604
2017-09-26T20:26:33.791Z,99599
2017-09-26T20:29:02.364Z,99610
2017-09-26T20:31:30.439Z,99607
2017-09-26T20:33:58.576Z,99610
2017-09-26T20:36:26.651Z,99601
2017-09-26T20:38:55.550Z,99617
2017-09-26T20:41:23.691Z,99605
2017-09-26T20:43:51.797Z,99612
2017-09-26T20:46:19.872Z,99608
2017-09-26T20:48:47.951Z,99606
2017-09-26T20:51:17.563Z,99617
2017-09-26T20:53:45.648Z,99615
2017-09-26T20:56:13.741Z,99614
2017-09-26T20:58:42.596Z,99611
2017-09-26T21:01:10.679Z,99617
2017-09-26T21:03:38.803Z,99614
2017-09-26T21:06:06.890Z,99612
2017-09-26T21:08:34.968Z,99616
2017-09-26T21:11:03.043Z,99610
2017-09-26T21:13:31.141Z,99614
2017-09-26T21:15:59.222Z,99616
2017-09-26T21:18:27.377Z,99608
2017-09-26T21:20:55.456Z,99619
2017-09-26T21:23:23.571Z,99622
2017-09-26T21:25:52.419Z,99620
2017-09-26T21:28:20.517Z,99611
2017-09-26T21:30:48.603Z,99617
2017-09-26T21:33:16.708Z,99626
2017-09-26T21:35:44.792Z,99612
2017-09-26T21:38:12.899Z,99607
2017-09-26T21:40:40.979Z,99618
2017-09-26T21:43:09.069Z,99615
2017-09-26T21:45:37.919Z,99611
2017-09-26T21:48:06.018Z,99608
2017-09-26T21:50:34.105Z,99623
2017-09-26T21:53:02.954Z,99618
2017-09-26T21:55:31.044Z,99617
2017-09-26T21:57:59.131Z,99611
2017-09-26T22:00:27.288Z,99614
2017-09-26T22:02:55.384Z,99611
2017-09-26T22:05:24.236Z,99607
2017-09-26T22:07:52.345Z,99614
2017-09-26T22:10:21.191Z,99606
2017-09-26T22:12:49.328Z,99610
2017-09-26T22:15:17.420Z,99612
2017-09-26T22:17:46.277Z,99618
2017-09-26T22:20:15.117Z,99611
2017-09-26T22:22:43.198Z,99616
2017-09-26T22:25:11.285Z,99623
2017-09-26T22:27:39.360Z,99616
2017-09-26T22:30:07.452Z,99613
2017-09-26T22:32:36.308Z,99610
2017-09-26T22:35:04.431Z,99615
2017-09-26T22:37:33.276Z,99610
2017-09-26T22:40:01.371Z,99613
2017-09-26T22:42:29.507Z,99609
2017-09-26T22:44:58.528Z,99610
2017-09-26T22:47:26.602Z,99611
2017-09-26T22:49:54.703Z,99615
2017-09-26T22:52:23.551Z,99612
2017-09-26T22:54:51.649Z,99615
2017-09-26T22:57:19.727Z,99605
2017-09-26T22:59:47.807Z,99614
2017-09-26T23:02:16.660Z,99619
2017-09-26T23:04:44.757Z,99617
2017-09-26T23:07:12.836Z,99611
2017-09-26T23:09:41.699Z,99619
2017-09-26T23:12:09.773Z,99621
2017-09-26T23:14:37.868Z,99619
2017-09-26T23:17:05.949Z,99615
2017-09-26T23:19:34.807Z,99633
2017-09-26T23:22:02.898Z,99623
2017-09-26T23:24:30.987Z,99633
2017-09-26T23:26:59.844Z,99620
2017-09-26T23:29:27.936Z,99621
2017-09-26T23:31:56.016Z,99622
2017-09-26T23:34:24.103Z,99626
2017-09-26T23:36:52.952Z,99629
2017-09-26T23:39:21.039Z,99636
2017-09-26T23:41:49.116Z,99630
2017-09-26T23:44:17.207Z,99629
2017-09-26T23:46:46.060Z,99636
2017-09-26T23:49:14.152Z,99632
2017-09-26T23:51:42.238Z,99632
2017-09-26T23:54:10.323Z,99624
2017-09-26T23:56:39.166Z,99627
2017-09-26T23:59:07.264Z,99620
